Time;durP1;ratioP1;P1;durP2;ratioP2;P2;SDS_P1;SDS_P2;PMS_P1;PMS_P2;Temp;Humidity;BMP_temperature;BMP_pressure;BME280_temperature;BME280_humidity;BME280_pressure;Samples;Min_cycle;Max_cycle;Signal;HPM_P1;HPM_P2
2022/12/01 00:01:12;;;;;;;87.13;77.67;;;;;;;4.80;100.00;102850.50;5051820;28;20432;-46
2022/12/01 00:03:40;;;;;;;88.90;77.40;;;;;;;4.80;100.00;102850.50;5052895;28;20485;-44
2022/12/01 00:06:11;;;;;;;89.70;77.30;;;;;;;4.81;100.00;102859.25;5071761;28;20435;-47
2022/12/01 00:08:39;;;;;;;87.93;76.33;;;;;;;4.83;100.00;102852.94;5071603;28;20437;-47
2022/12/01 00:11:07;;;;;;;85.27;74.47;;;;;;;4.84;100.00;102853.75;5071815;28;20426;-44
2022/12/01 00:13:36;;;;;;;79.27;70.27;;;;;;;4.84;100.00;102859.91;5070344;28;20427;-45
2022/12/01 00:16:12;;;;;;;91.83;76.90;;;;;;;4.87;100.00;102861.47;5061271;28;20794;-47
2022/12/01 00:18:40;;;;;;;86.57;75.53;;;;;;;4.87;100.00;102854.41;5051682;28;20748;-46
2022/12/01 00:21:14;;;;;;;84.07;75.20;;;;;;;4.90;100.00;102851.53;5051703;28;20431;-47
2022/12/01 00:23:43;;;;;;;84.70;73.30;;;;;;;4.91;100.00;102860.31;5050876;28;20424;-44
2022/12/01 00:26:10;;;;;;;86.50;77.23;;;;;;;4.90;100.00;102862.13;5051681;28;21055;-44
2022/12/01 00:28:38;;;;;;;83.33;74.60;;;;;;;4.88;100.00;102848.16;5051333;28;20431;-45
2022/12/01 00:31:07;;;;;;;88.20;79.00;;;;;;;4.90;100.00;102851.53;5051453;28;21037;-45
2022/12/01 00:33:36;;;;;;;83.67;74.73;;;;;;;4.91;100.00;102853.25;5050863;28;20432;-49
2022/12/01 00:36:05;;;;;;;82.30;73.70;;;;;;;4.94;100.00;102860.94;5054161;28;20454;-46
2022/12/01 00:38:32;;;;;;;85.80;76.70;;;;;;;4.96;100.00;102853.75;5055440;28;20430;-47
2022/12/01 00:41:00;;;;;;;92.53;76.77;;;;;;;4.95;100.00;102852.06;5055485;28;21038;-48
2022/12/01 00:43:28;;;;;;;92.00;82.53;;;;;;;4.95;100.00;102857.38;5055437;28;20431;-43
2022/12/01 00:45:56;;;;;;;90.23;80.30;;;;;;;4.96;100.00;102860.81;5055228;28;20479;-45
2022/12/01 00:48:24;;;;;;;91.07;81.57;;;;;;;4.97;100.00;102859.88;5055521;28;20459;-46
2022/12/01 00:50:54;;;;;;;88.00;78.93;;;;;;;4.97;100.00;102852.81;5055320;28;20434;-44
2022/12/01 00:53:23;;;;;;;94.13;82.83;;;;;;;4.96;100.00;102855.53;5055396;28;20910;-45
2022/12/01 00:55:52;;;;;;;90.63;77.13;;;;;;;4.98;100.00;102854.50;5054662;28;20522;-49
2022/12/01 00:58:20;;;;;;;88.17;77.00;;;;;;;4.97;100.00;102851.94;5055288;28;20427;-44
2022/12/01 01:00:48;;;;;;;104.60;86.00;;;;;;;4.96;100.00;102853.75;5055053;28;20465;-43
2022/12/01 01:03:16;;;;;;;86.63;77.27;;;;;;;4.97;100.00;102859.88;5054987;28;20431;-46
2022/12/01 01:05:43;;;;;;;103.77;88.67;;;;;;;4.96;100.00;102856.38;5073130;28;20474;-47
2022/12/01 01:08:14;;;;;;;90.70;79.73;;;;;;;4.93;100.00;102853.97;5075033;28;20441;-46
2022/12/01 01:10:44;;;;;;;100.43;84.97;;;;;;;4.96;100.00;102863.47;5075182;28;20476;-47
2022/12/01 01:13:12;;;;;;;100.23;86.13;;;;;;;4.94;100.00;102873.31;5074766;28;20810;-47
2022/12/01 01:15:41;;;;;;;102.97;84.23;;;;;;;4.92;100.00;102870.81;5074435;28;20458;-45
2022/12/01 01:18:11;;;;;;;102.40;86.57;;;;;;;4.93;100.00;102871.63;5074812;28;20784;-48
2022/12/01 01:20:39;;;;;;;103.20;88.73;;;;;;;4.94;100.00;102876.81;5074950;28;20466;-49
2022/12/01 01:23:07;;;;;;;108.13;85.17;;;;;;;4.95;100.00;102872.38;5074962;28;20430;-49
2022/12/01 01:25:36;;;;;;;92.00;81.87;;;;;;;4.98;100.00;102877.44;5074107;28;20489;-45
2022/12/01 01:28:04;;;;;;;99.63;84.60;;;;;;;4.98;100.00;102880.94;5074789;28;20877;-46
2022/12/01 01:30:31;;;;;;;94.53;81.70;;;;;;;4.97;100.00;102873.97;5075060;28;20455;-46
2022/12/01 01:32:59;;;;;;;99.73;85.67;;;;;;;4.98;100.00;102880.09;5074547;28;20492;-46
2022/12/01 01:35:27;;;;;;;96.07;84.20;;;;;;;4.99;100.00;102882.63;5073286;28;20469;-45
2022/12/01 01:37:54;;;;;;;96.43;82.73;;;;;;;4.99;100.00;102877.31;5074599;28;20430;-45
2022/12/01 01:40:22;;;;;;;95.90;85.60;;;;;;;5.01;100.00;102882.53;5074668;28;20460;-46
2022/12/01 01:42:51;;;;;;;92.00;82.17;;;;;;;5.01;100.00;102885.16;5074312;28;20966;-48
2022/12/01 01:45:24;;;;;;;101.40;86.40;;;;;;;5.00;100.00;102883.47;5073540;28;20478;-46
2022/12/01 01:47:54;;;;;;;93.70;83.40;;;;;;;4.99;100.00;102887.91;5074427;28;20450;-47
2022/12/01 01:50:24;;;;;;;93.60;83.33;;;;;;;4.97;100.00;102889.81;5074255;28;21028;-48
2022/12/01 01:52:59;;;;;;;95.63;81.57;;;;;;;4.97;100.00;102887.19;5074323;28;20438;-47
2022/12/01 01:55:28;;;;;;;100.10;81.73;;;;;;;4.94;100.00;102891.81;5073447;28;20460;-46
2022/12/01 01:57:58;;;;;;;111.23;85.20;;;;;;;4.94;100.00;102884.75;5064835;28;20428;-48
2022/12/01 02:00:25;;;;;;;100.30;85.00;;;;;;;4.91;100.00;102882.31;5054489;28;20453;-49
2022/12/01 02:02:54;;;;;;;98.93;86.00;;;;;;;4.90;100.00;102885.06;5054111;28;20442;-50
2022/12/01 02:05:24;;;;;;;108.80;84.40;;;;;;;4.91;100.00;102892.03;5053329;28;20488;-47
2022/12/01 02:07:55;;;;;;;108.20;87.03;;;;;;;4.91;100.00;102884.97;5054003;28;21030;-49
2022/12/01 02:10:32;;;;;;;106.27;87.60;;;;;;;4.88;100.00;102892.25;5053954;28;20475;-50
2022/12/01 02:13:15;;;;;;;103.73;83.50;;;;;;;4.86;100.00;102879.16;5054221;28;20752;-46
2022/12/01 02:15:51;;;;;;;107.67;82.60;;;;;;;4.86;100.00;102892.38;5053449;28;20465;-50
2022/12/01 02:18:25;;;;;;;106.30;85.13;;;;;;;4.83;100.00;102897.88;5053807;28;20437;-50
2022/12/01 02:21:13;;;;;;;95.40;82.07;;;;;;;4.82;100.00;102890.88;5053956;28;20447;-47
2022/12/01 02:24:15;;;;;;;99.40;83.40;;;;;;;4.81;100.00;102885.69;5053302;28;20431;-47
2022/12/01 02:26:50;;;;;;;97.57;83.93;;;;;;;4.80;100.00;102889.31;5053505;28;20549;-48
2022/12/01 02:29:49;;;;;;;101.63;85.00;;;;;;;4.80;100.00;102886.66;5053785;28;20459;-48
2022/12/01 02:32:27;;;;;;;104.40;83.57;;;;;;;4.80;100.00;102886.66;5053631;28;20439;-51
2022/12/01 02:34:59;;;;;;;98.43;83.70;;;;;;;4.79;100.00;102883.19;5040888;28;20464;-45
2022/12/01 02:37:34;;;;;;;92.33;77.80;;;;;;;4.79;100.00;102875.25;5033520;28;20791;-50
2022/12/01 02:40:10;;;;;;;101.10;80.20;;;;;;;4.79;100.00;102875.25;5033483;28;20505;-48
2022/12/01 02:42:49;;;;;;;89.67;77.40;;;;;;;4.80;100.00;102879.59;5033438;28;20428;-45
2022/12/01 02:45:26;;;;;;;90.30;79.40;;;;;;;4.77;100.00;102886.88;5032646;28;20486;-48
2022/12/01 02:47:59;;;;;;;84.47;75.40;;;;;;;4.80;100.00;102881.38;5033572;28;20416;-48
2022/12/01 02:50:30;;;;;;;87.83;77.40;;;;;;;4.82;100.00;102882.97;5033433;28;20453;-46
2022/12/01 02:52:59;;;;;;;84.97;75.20;;;;;;;4.80;100.00;102878.75;5033377;28;20791;-50
2022/12/01 02:55:27;;;;;;;94.57;80.23;;;;;;;4.82;100.00;102875.03;5041227;28;20646;-45
2022/12/01 02:57:55;;;;;;;93.53;80.60;;;;;;;4.83;100.00;102873.25;5052374;28;20522;-47
2022/12/01 03:00:22;;;;;;;85.83;76.53;;;;;;;4.82;100.00;102866.25;5052866;28;20455;-51
2022/12/01 03:03:14;;;;;;;92.27;77.30;;;;;;;4.83;100.00;102871.44;5053080;28;20434;-50
2022/12/01 03:05:47;;;;;;;87.20;73.50;;;;;;;4.79;100.00;102869.09;5052082;28;20486;-45
2022/12/01 03:08:26;;;;;;;88.30;77.53;;;;;;;4.80;100.00;102874.31;5052919;28;20796;-47
2022/12/01 03:10:56;;;;;;;85.03;75.90;;;;;;;4.79;100.00;102867.31;5052843;28;20446;-49
2022/12/01 03:13:36;;;;;;;84.80;74.83;;;;;;;4.83;100.00;102873.25;5052583;28;20474;-50
2022/12/01 03:16:09;;;;;;;85.07;76.03;;;;;;;4.82;100.00;102869.75;5052587;28;20510;-45
2022/12/01 03:18:41;;;;;;;80.90;72.07;;;;;;;4.83;100.00;102881.16;5052618;28;20431;-49
2022/12/01 03:21:14;;;;;;;83.27;73.80;;;;;;;4.83;100.00;102879.38;5052705;28;20433;-46
2022/12/01 03:23:48;;;;;;;81.17;72.37;;;;;;;4.83;100.00;102878.53;5051514;28;20424;-46
2022/12/01 03:26:19;;;;;;;91.10;78.03;;;;;;;4.81;100.00;102873.34;5052669;28;20470;-49
2022/12/01 03:28:50;;;;;;;80.63;72.13;;;;;;;4.82;100.00;102868.91;5052636;28;20458;-45
2022/12/01 03:31:23;;;;;;;81.63;72.27;;;;;;;4.80;100.00;102871.66;5052354;28;20454;-47
2022/12/01 03:33:57;;;;;;;89.77;76.23;;;;;;;4.82;100.00;102874.19;5051552;28;20451;-46
2022/12/01 03:36:30;;;;;;;80.53;71.43;;;;;;;4.82;100.00;102871.53;5052606;28;20424;-45
2022/12/01 03:39:03;;;;;;;82.17;72.17;;;;;;;4.81;100.00;102869.84;5052100;28;20455;-45
2022/12/01 03:41:37;;;;;;;86.60;75.17;;;;;;;4.80;100.00;102878.75;5052324;28;20465;-50
2022/12/01 03:44:09;;;;;;;79.90;71.23;;;;;;;4.83;100.00;102884.66;5051165;28;20466;-45
2022/12/01 03:46:43;;;;;;;83.33;71.43;;;;;;;4.84;100.00;102880.19;5052467;28;20471;-48
2022/12/01 03:49:14;;;;;;;86.77;77.43;;;;;;;4.84;100.00;102886.34;5052090;28;20459;-49
2022/12/01 03:51:54;;;;;;;83.97;74.57;;;;;;;4.87;100.00;102879.97;5052246;28;20441;-46
2022/12/01 03:54:33;;;;;;;98.63;80.37;;;;;;;4.83;100.00;102875.88;5050308;28;20538;-48
2022/12/01 03:57:08;;;;;;;86.80;77.50;;;;;;;4.81;100.00;102881.25;5048695;28;20458;-46
2022/12/01 03:59:38;;;;;;;90.63;80.77;;;;;;;4.82;100.00;102874.19;5031951;28;20974;-45
2022/12/01 04:02:06;;;;;;;99.10;81.90;;;;;;;4.82;100.00;102877.69;5032124;28;20451;-45
2022/12/01 04:04:36;;;;;;;91.87;80.10;;;;;;;4.85;100.00;102876.59;5030506;28;20894;-46
2022/12/01 04:07:05;;;;;;;87.40;77.90;;;;;;;4.86;100.00;102886.25;5031763;28;20478;-48
2022/12/01 04:09:32;;;;;;;89.93;77.00;;;;;;;4.86;100.00;102887.09;5031015;28;20490;-46
2022/12/01 04:14:45;;;;;;;96.10;77.70;;;;;;;4.89;100.00;102886.88;5030169;28;20474;-47
2022/12/01 04:17:13;;;;;;;95.43;78.87;;;;;;;4.90;100.00;102890.34;5031604;28;20927;-46
2022/12/01 04:19:42;;;;;;;86.90;75.80;;;;;;;4.89;100.00;102886.88;5031907;28;20493;-48
2022/12/01 04:22:09;;;;;;;95.53;80.97;;;;;;;4.90;100.00;102893.84;5031701;28;20965;-48
2022/12/01 04:24:37;;;;;;;94.40;82.40;;;;;;;4.91;100.00;102892.03;5030367;28;20828;-45
2022/12/01 04:27:05;;;;;;;95.27;78.03;;;;;;;4.91;100.00;102890.25;5031578;28;20479;-46
2022/12/01 04:29:33;;;;;;;92.97;78.70;;;;;;;4.89;100.00;102896.59;5031863;28;20461;-49
2022/12/01 04:32:00;;;;;;;93.03;76.37;;;;;;;4.91;100.00;102895.53;5031800;28;20432;-50
2022/12/01 04:34:28;;;;;;;101.73;79.10;;;;;;;4.90;100.00;102891.19;5030324;28;20466;-49
2022/12/01 04:36:57;;;;;;;108.60;78.53;;;;;;;4.92;100.00;102891.09;5031747;28;20433;-47
2022/12/01 04:39:25;;;;;;;85.83;73.50;;;;;;;4.94;100.00;102894.47;5031396;28;20463;-50
2022/12/01 04:41:52;;;;;;;94.17;79.27;;;;;;;4.95;100.00;102897.03;5031708;28;20437;-48
2022/12/01 04:44:20;;;;;;;96.63;75.87;;;;;;;4.97;100.00;102897.75;5030518;28;20460;-50
2022/12/01 04:46:47;;;;;;;102.63;78.50;;;;;;;4.98;100.00;102898.59;5031573;28;20476;-47
2022/12/01 04:49:15;;;;;;;90.50;71.70;;;;;;;4.98;100.00;102906.53;5031474;28;20456;-46
2022/12/01 04:51:43;;;;;;;88.57;71.33;;;;;;;4.99;100.00;102902.91;5031481;28;20436;-50
2022/12/01 04:54:12;;;;;;;74.73;66.77;;;;;;;4.99;100.00;102901.13;5030905;28;20470;-45
2022/12/01 04:56:40;;;;;;;94.87;77.90;;;;;;;5.00;100.00;102908.13;5050024;28;20423;-49
2022/12/01 04:59:08;;;;;;;84.27;69.10;;;;;;;5.01;100.00;102912.47;5051062;28;20455;-47
2022/12/01 05:01:36;;;;;;;86.43;74.43;;;;;;;5.01;100.00;102904.53;5051333;28;20934;-48
2022/12/01 05:04:04;;;;;;;87.33;72.70;;;;;;;5.00;100.00;102910.75;5050674;28;20521;-45
2022/12/01 05:06:32;;;;;;;83.23;74.10;;;;;;;5.01;100.00;102908.97;5051189;28;20497;-50
2022/12/01 05:09:01;;;;;;;84.10;71.63;;;;;;;5.00;100.00;102915.19;5051025;28;20466;-46
2022/12/01 05:11:31;;;;;;;83.27;74.00;;;;;;;4.98;100.00;102912.69;5051306;28;20918;-47
2022/12/01 05:13:59;;;;;;;79.77;71.50;;;;;;;4.96;100.00;102917.19;5050525;28;20463;-50
2022/12/01 05:16:30;;;;;;;80.33;71.83;;;;;;;4.94;100.00;102911.19;5051318;28;20430;-45
2022/12/01 05:21:46;;;;;;;78.50;68.43;;;;;;;4.92;100.00;102918.38;5052855;28;20431;-49
2022/12/01 05:24:15;;;;;;;71.67;64.47;;;;;;;4.92;100.00;102909.59;5054345;28;20502;-50
2022/12/01 05:26:45;;;;;;;83.20;68.17;;;;;;;4.91;100.00;102919.34;5054909;28;20503;-45
2022/12/01 05:29:13;;;;;;;74.70;67.00;;;;;;;4.89;100.00;102915.97;5054850;28;20454;-46
2022/12/01 05:31:41;;;;;;;74.30;66.93;;;;;;;4.88;100.00;102922.19;5054848;28;20426;-45
2022/12/01 05:34:09;;;;;;;70.73;63.03;;;;;;;4.89;100.00;102918.59;5053955;28;20455;-44
2022/12/01 05:36:37;;;;;;;74.13;66.50;;;;;;;4.90;100.00;102925.56;5054610;28;20458;-47
2022/12/01 05:39:04;;;;;;;71.20;63.87;;;;;;;4.90;100.00;102914.13;5054588;28;20455;-48
2022/12/01 05:41:32;;;;;;;73.23;65.20;;;;;;;4.89;100.00;102920.41;5054700;28;20427;-48
2022/12/01 05:44:01;;;;;;;72.10;65.00;;;;;;;4.89;100.00;102920.41;5053754;28;21044;-47
2022/12/01 05:46:29;;;;;;;71.73;64.03;;;;;;;4.89;100.00;102921.25;5054338;28;20439;-47
2022/12/01 05:48:56;;;;;;;69.83;62.53;;;;;;;4.88;100.00;102923.97;5054160;28;20970;-46
2022/12/01 05:51:24;;;;;;;73.47;65.67;;;;;;;4.90;100.00;102925.56;5054484;28;20431;-49
2022/12/01 05:53:51;;;;;;;71.00;64.17;;;;;;;4.89;100.00;102923.03;5053555;28;20462;-47
2022/12/01 05:56:19;;;;;;;70.00;63.17;;;;;;;4.90;100.00;102922.06;5054249;28;20424;-46
2022/12/01 05:58:47;;;;;;;69.37;62.40;;;;;;;4.91;100.00;102929.06;5044059;28;20451;-45
2022/12/01 06:01:16;;;;;;;71.87;64.70;;;;;;;4.92;100.00;102928.13;5050395;28;20428;-47
2022/12/01 06:03:43;;;;;;;71.10;63.97;;;;;;;4.93;100.00;102929.78;5033491;28;20432;-48
2022/12/01 06:06:11;;;;;;;75.63;63.70;;;;;;;4.95;100.00;102938.47;5034145;28;20444;-47
2022/12/01 06:08:39;;;;;;;71.53;63.97;;;;;;;4.96;100.00;102941.00;5033824;28;20479;-50
2022/12/01 06:11:06;;;;;;;70.27;62.83;;;;;;;4.97;100.00;102941.84;5034207;28;20433;-47
2022/12/01 06:13:34;;;;;;;75.57;63.50;;;;;;;4.97;100.00;102947.13;5033397;28;20432;-45
2022/12/01 06:16:04;;;;;;;72.27;64.57;;;;;;;4.96;100.00;102938.34;5033842;28;20432;-45
2022/12/01 06:18:35;;;;;;;70.43;63.03;;;;;;;4.97;100.00;102934.78;5034004;28;20442;-44
2022/12/01 06:21:04;;;;;;;68.50;61.50;;;;;;;5.00;100.00;102933.72;5034127;28;20432;-49
2022/12/01 06:23:32;;;;;;;66.80;59.90;;;;;;;4.99;100.00;102937.28;5033337;28;20436;-45
2022/12/01 06:26:00;;;;;;;65.20;58.57;;;;;;;4.98;100.00;102947.06;5033853;28;20440;-44
2022/12/01 06:28:27;;;;;;;64.03;57.53;;;;;;;4.97;100.00;102939.22;5033506;28;20483;-49
2022/12/01 06:30:55;;;;;;;63.17;57.37;;;;;;;4.93;100.00;102943.00;5033839;28;20436;-46
2022/12/01 06:33:30;;;;;;;62.83;56.57;;;;;;;4.95;100.00;102941.13;5032372;28;20432;-51
2022/12/01 06:36:00;;;;;;;65.53;59.03;;;;;;;4.96;100.00;102948.06;5033588;28;20428;-49
2022/12/01 06:38:30;;;;;;;61.80;55.90;;;;;;;4.97;100.00;102950.63;5033384;28;20432;-47
2022/12/01 06:40:58;;;;;;;62.37;56.20;;;;;;;4.98;100.00;102949.69;5033378;28;20793;-44
2022/12/01 06:43:26;;;;;;;60.83;55.37;;;;;;;4.95;100.00;102957.84;5033390;28;20440;-45
2022/12/01 06:45:54;;;;;;;61.90;55.57;;;;;;;4.91;100.00;102952.84;5033438;28;20444;-51
2022/12/01 06:48:27;;;;;;;61.37;55.67;;;;;;;4.93;100.00;102957.06;5033376;28;20467;-48
2022/12/01 06:50:57;;;;;;;62.30;56.50;;;;;;;4.97;100.00;102955.91;5033385;28;20432;-48
2022/12/01 06:53:27;;;;;;;61.23;55.43;;;;;;;4.98;100.00;102957.63;5033075;28;20428;-47
2022/12/01 06:55:58;;;;;;;60.20;54.70;;;;;;;4.96;100.00;102954.22;5045639;28;20818;-47
2022/12/01 06:58:26;;;;;;;61.53;55.67;;;;;;;5.00;100.00;102963.66;5053250;28;20474;-50
2022/12/01 07:00:54;;;;;;;62.90;56.57;;;;;;;5.01;100.00;102960.06;5053292;28;20431;-49
2022/12/01 07:03:22;;;;;;;61.17;56.00;;;;;;;5.05;100.00;102958.03;5052813;28;20437;-49
2022/12/01 07:05:57;;;;;;;60.80;55.00;;;;;;;5.06;100.00;102961.50;5052451;28;20551;-46
2022/12/01 07:08:26;;;;;;;62.57;56.83;;;;;;;5.07;100.00;102964.06;5052723;28;20506;-49
2022/12/01 07:10:58;;;;;;;64.70;58.60;;;;;;;5.08;100.00;102965.75;5053062;28;20453;-52
2022/12/01 07:13:26;;;;;;;62.40;56.40;;;;;;;5.11;100.00;102970.00;5052488;28;20435;-47
2022/12/01 07:16:00;;;;;;;61.13;55.90;;;;;;;5.13;100.00;102970.72;5052836;28;20811;-50
2022/12/01 07:18:29;;;;;;;65.53;59.23;;;;;;;5.14;100.00;102977.72;5052384;28;20927;-50
2022/12/01 07:20:59;;;;;;;62.00;56.20;;;;;;;5.15;100.00;102968.81;5052648;28;20431;-47
2022/12/01 07:23:29;;;;;;;60.70;55.40;;;;;;;5.16;100.00;102983.75;5052539;28;20863;-46
2022/12/01 07:26:00;;;;;;;60.37;54.30;;;;;;;5.15;100.00;102969.66;5052383;28;20523;-51
2022/12/01 07:28:28;;;;;;;61.40;55.67;;;;;;;5.14;100.00;102970.59;5052223;28;20477;-47
2022/12/01 07:31:01;;;;;;;57.13;51.80;;;;;;;5.16;100.00;102967.88;5052655;28;20942;-46
2022/12/01 07:33:30;;;;;;;59.33;53.80;;;;;;;5.16;100.00;102981.94;5052077;28;20431;-47
2022/12/01 07:35:58;;;;;;;60.53;54.63;;;;;;;5.15;100.00;102974.09;5052441;28;20427;-46
2022/12/01 07:38:29;;;;;;;61.83;56.17;;;;;;;5.14;100.00;102978.53;5052285;28;20432;-45
2022/12/01 07:41:01;;;;;;;61.83;56.20;;;;;;;5.13;100.00;102981.31;5052293;28;21156;-46
2022/12/01 07:43:30;;;;;;;59.70;54.13;;;;;;;5.14;100.00;102975.06;5051473;28;20427;-50
2022/12/01 07:46:03;;;;;;;58.90;53.60;;;;;;;5.14;100.00;102985.66;5052364;28;20435;-46
2022/12/01 07:48:31;;;;;;;61.20;55.30;;;;;;;5.16;100.00;102984.59;5051893;28;20506;-48
2022/12/01 07:50:58;;;;;;;59.37;53.87;;;;;;;5.17;100.00;102988.09;5052131;28;20423;-47
2022/12/01 07:53:26;;;;;;;57.17;52.17;;;;;;;5.19;100.00;102983.53;5052063;28;20441;-45
2022/12/01 07:55:55;;;;;;;58.03;52.77;;;;;;;5.21;100.00;102986.91;5051578;28;20448;-51
2022/12/01 07:58:23;;;;;;;60.60;54.83;;;;;;;5.23;100.00;102987.63;5039083;28;20932;-46
2022/12/01 08:00:50;;;;;;;61.33;55.70;;;;;;;5.23;100.00;102993.75;5032267;28;20487;-48
2022/12/01 08:03:18;;;;;;;58.90;53.50;;;;;;;5.25;100.00;102994.53;5031927;28;20459;-51
2022/12/01 08:05:55;;;;;;;57.83;52.47;;;;;;;5.28;100.00;102996.09;5031559;28;20457;-52
2022/12/01 08:08:22;;;;;;;58.57;53.30;;;;;;;5.29;100.00;102992.47;5031870;28;20478;-45
2022/12/01 08:10:50;;;;;;;59.87;54.47;;;;;;;5.30;100.00;102995.03;5031669;28;21009;-52
2022/12/01 08:13:20;;;;;;;57.17;52.57;;;;;;;5.33;100.00;102993.97;5031890;28;20439;-48
2022/12/01 08:15:48;;;;;;;59.13;53.83;;;;;;;5.34;100.00;102998.31;5031542;28;20456;-52
2022/12/01 08:18:16;;;;;;;58.73;53.73;;;;;;;5.37;100.00;103011.34;5031991;28;20815;-45
2022/12/01 08:20:43;;;;;;;60.50;55.00;;;;;;;5.39;100.00;103006.78;5031679;28;20456;-50
2022/12/01 08:23:11;;;;;;;58.87;53.80;;;;;;;5.41;100.00;103002.22;5031501;28;20436;-46
2022/12/01 08:25:38;;;;;;;57.30;52.33;;;;;;;5.41;100.00;102999.56;5031229;28;20468;-47
2022/12/01 08:28:06;;;;;;;59.23;54.20;;;;;;;5.42;100.00;103006.56;5031593;28;20468;-50
2022/12/01 08:30:36;;;;;;;57.57;52.57;;;;;;;5.43;100.00;103008.25;5031631;28;21005;-46
2022/12/01 08:33:03;;;;;;;55.07;50.73;;;;;;;5.45;100.00;103009.84;5031886;28;20443;-46
2022/12/01 08:35:32;;;;;;;56.60;51.80;;;;;;;5.48;100.00;103006.13;5031152;28;20659;-52
2022/12/01 08:38:00;;;;;;;56.70;52.07;;;;;;;5.51;100.00;103011.19;5031831;28;20431;-46
2022/12/01 08:40:27;;;;;;;56.70;51.87;;;;;;;5.51;100.00;103009.41;5031686;28;20456;-48
2022/12/01 08:42:55;;;;;;;56.67;51.87;;;;;;;5.53;100.00;103012.78;5031576;28;20946;-45
2022/12/01 08:45:23;;;;;;;57.73;53.10;;;;;;;5.52;100.00;103011.09;5031015;28;20474;-52
2022/12/01 08:47:53;;;;;;;57.40;52.10;;;;;;;5.56;100.00;103011.72;5031437;28;20432;-48
2022/12/01 08:50:20;;;;;;;57.07;52.20;;;;;;;5.59;100.00;103011.50;5031668;28;20464;-51
2022/12/01 08:52:48;;;;;;;60.07;54.90;;;;;;;5.60;100.00;103010.56;5031710;28;20438;-53
2022/12/01 08:55:16;;;;;;;60.00;55.10;;;;;;;5.59;100.00;103006.19;5038095;28;20455;-47
2022/12/01 08:57:43;;;;;;;61.43;56.27;;;;;;;5.63;100.00;103015.63;5054942;28;20431;-45
2022/12/01 09:00:12;;;;;;;62.43;56.33;;;;;;;5.65;100.00;103018.16;5055391;28;20826;-45
2022/12/01 09:02:40;;;;;;;64.17;58.90;;;;;;;5.66;100.00;103010.13;5055402;28;20435;-48
2022/12/01 09:05:09;;;;;;;65.20;59.20;;;;;;;5.70;100.00;103013.38;5054592;28;21008;-49
2022/12/01 09:07:37;;;;;;;63.63;57.47;;;;;;;5.74;100.00;103017.50;5055441;28;20434;-51
2022/12/01 09:10:06;;;;;;;65.20;59.47;;;;;;;5.73;100.00;103021.13;5055055;28;20532;-49
2022/12/01 09:12:33;;;;;;;67.70;61.50;;;;;;;5.72;100.00;103014.97;5055139;28;20435;-47
2022/12/01 09:15:01;;;;;;;66.30;60.27;;;;;;;5.75;100.00;103019.19;5054596;28;20458;-50
2022/12/01 09:17:29;;;;;;;65.77;59.40;;;;;;;5.75;100.00;103019.19;5055402;28;20430;-45
2022/12/01 09:19:56;;;;;;;70.53;63.50;;;;;;;5.75;100.00;103020.03;5054900;28;20984;-47
2022/12/01 09:22:25;;;;;;;67.13;60.60;;;;;;;5.76;100.00;103021.75;5055133;28;20772;-47
2022/12/01 09:24:53;;;;;;;69.10;61.80;;;;;;;5.75;100.00;103022.69;5054470;28;20824;-47
2022/12/01 09:27:20;;;;;;;69.20;62.77;;;;;;;5.77;100.00;103015.47;5054962;28;20431;-49
2022/12/01 09:29:48;;;;;;;68.40;61.93;;;;;;;5.81;100.00;103014.31;5054553;28;20868;-53
2022/12/01 09:32:16;;;;;;;67.77;61.40;;;;;;;5.81;100.00;103014.31;5054764;28;20807;-52
2022/12/01 09:34:44;;;;;;;71.00;63.80;;;;;;;5.83;100.00;103012.38;5054184;28;20888;-46
2022/12/01 09:37:12;;;;;;;74.37;66.87;;;;;;;5.84;100.00;103011.44;5054715;28;20431;-53
2022/12/01 09:39:41;;;;;;;70.60;63.83;;;;;;;5.86;100.00;103014.84;5054560;28;20458;-47
2022/12/01 09:42:14;;;;;;;70.67;63.90;;;;;;;5.89;100.00;103019.06;5054483;28;20926;-49
2022/12/01 09:44:46;;;;;;;67.73;61.30;;;;;;;5.86;100.00;103016.63;5054135;28;20463;-45
2022/12/01 09:47:19;;;;;;;65.43;59.13;;;;;;;5.89;100.00;103011.97;5054590;28;20431;-48
2022/12/01 09:49:54;;;;;;;67.50;61.30;;;;;;;5.91;100.00;103014.53;5054436;28;20481;-48
2022/12/01 09:52:24;;;;;;;69.07;62.47;;;;;;;5.94;100.00;103009.00;5054478;28;20435;-48
2022/12/01 09:54:55;;;;;;;80.10;72.20;;;;;;;5.98;100.00;103008.66;5053556;28;20451;-45
2022/12/01 09:57:29;;;;;;;77.47;70.30;;;;;;;6.04;100.00;103013.50;5049417;28;20432;-51
2022/12/01 09:59:58;;;;;;;77.50;69.40;;;;;;;6.09;100.00;103005.25;5034269;28;20455;-54
2022/12/01 10:02:33;;;;;;;69.67;63.37;;;;;;;6.12;100.00;103005.84;5034220;28;20468;-48
2022/12/01 10:05:04;;;;;;;68.67;62.30;;;;;;;6.09;100.00;103014.00;5033646;28;20484;-50
2022/12/01 10:07:36;;;;;;;68.80;62.17;;;;;;;6.17;100.00;103004.66;5033258;28;20438;-46
2022/12/01 10:10:10;;;;;;;70.83;64.67;;;;;;;6.20;100.00;103007.94;5033833;28;20530;-52
2022/12/01 10:12:42;;;;;;;70.23;63.83;;;;;;;6.19;100.00;103000.94;5034285;28;20438;-52
2022/12/01 10:15:16;;;;;;;70.10;63.40;;;;;;;6.30;100.00;103002.81;5033416;28;20470;-50
2022/12/01 10:17:57;;;;;;;71.10;64.30;;;;;;;6.39;100.00;103002.13;5033762;28;20449;-50
2022/12/01 10:20:29;;;;;;;71.47;64.57;;;;;;;6.41;100.00;103003.69;5033941;28;20471;-49
2022/12/01 10:23:27;;;;;;;68.83;61.83;;;;;;;6.48;100.00;102990.84;5033989;28;20515;-49
2022/12/01 10:25:58;;;;;;;66.27;60.03;;;;;;;6.52;100.00;102989.63;5033758;28;20814;-49
2022/12/01 10:28:53;;;;;;;66.53;60.40;;;;;;;6.52;100.00;102982.53;5033999;28;20432;-50
2022/12/01 10:31:28;;;;;;;68.00;61.70;;;;;;;6.54;100.00;102983.25;5033841;28;20459;-53
2022/12/01 10:34:01;;;;;;;68.80;62.33;;;;;;;6.56;100.00;102985.81;5033164;28;20467;-51
2022/12/01 10:36:32;;;;;;;68.60;62.50;;;;;;;6.64;100.00;102994.84;5033551;28;20432;-51
2022/12/01 10:38:59;;;;;;;70.70;64.20;;;;;;;6.69;100.00;102994.50;5033739;28;20846;-52
2022/12/01 10:41:33;;;;;;;70.60;63.57;;;;;;;6.67;100.00;102989.31;5033772;28;20428;-49
2022/12/01 10:44:04;;;;;;;70.00;63.20;;;;;;;6.67;100.00;102986.66;5032908;28;20550;-53
2022/12/01 10:46:39;;;;;;;71.93;64.83;;;;;;;6.64;100.00;102986.06;5033518;28;20516;-52
2022/12/01 10:49:10;;;;;;;75.93;67.83;;;;;;;6.59;100.00;102983.78;5033190;28;20467;-50
2022/12/01 10:51:52;;;;;;;72.03;65.53;;;;;;;6.52;100.00;102985.19;5033500;28;20425;-54
2022/12/01 10:54:21;;;;;;;71.23;64.57;;;;;;;6.45;100.00;102989.25;5032682;28;20468;-48
2022/12/01 10:56:55;;;;;;;71.07;63.47;;;;;;;6.45;100.00;102988.41;5049756;28;20434;-47
2022/12/01 10:59:27;;;;;;;72.00;64.67;;;;;;;6.37;100.00;102988.97;5052935;28;20458;-51
2022/12/01 11:01:57;;;;;;;73.83;65.93;;;;;;;6.38;100.00;103006.59;5053263;28;20437;-51
2022/12/01 11:04:34;;;;;;;72.67;64.77;;;;;;;6.32;100.00;102991.13;5052716;28;20546;-50
2022/12/01 11:07:02;;;;;;;73.00;65.40;;;;;;;6.25;100.00;102984.59;5053049;28;20427;-50
2022/12/01 11:09:31;;;;;;;70.77;63.90;;;;;;;6.19;100.00;102987.69;5052749;28;20819;-50
2022/12/01 11:12:01;;;;;;;73.17;65.13;;;;;;;6.12;100.00;102997.91;5052695;28;20431;-49
2022/12/01 11:14:42;;;;;;;78.07;66.17;;;;;;;6.14;100.00;102992.50;5052249;28;20451;-47
2022/12/01 11:17:33;;;;;;;71.23;63.90;;;;;;;6.12;100.00;102992.59;5052877;28;20451;-46
2022/12/01 11:20:25;;;;;;;75.90;67.70;;;;;;;6.10;100.00;102994.53;5048627;28;21016;-48
2022/12/01 11:22:53;;;;;;;79.27;69.30;;;;;;;6.13;100.00;102994.31;5052811;28;20481;-47
2022/12/01 11:25:21;;;;;;;81.73;69.70;;;;;;;6.13;100.00;102980.19;5052072;28;20463;-50
2022/12/01 11:27:56;;;;;;;77.57;67.67;;;;;;;6.18;100.00;102995.78;5052638;28;20431;-49
2022/12/01 11:30:26;;;;;;;77.17;69.10;;;;;;;6.22;100.00;102981.31;5052360;28;20478;-52